Time;durP1;ratioP1;P1;durP2;ratioP2;P2;SDS_P1;SDS_P2;PMS_P1;PMS_P2;Temp;Humidity;BMP_temperature;BMP_pressure;BME280_temperature;BME280_humidity;BME280_pressure;Samples;Min_cycle;Max_cycle;Signal;HPM_P1;HPM_P2
2022/05/30 00:02:00;;;;;;;9.43;8.10;;;;;;;;;;6160288;23;20310;-84
2022/05/30 00:04:30;;;;;;;9.80;8.35;;;;;;;;;;6188190;23;20374;-87
2022/05/30 00:06:59;;;;;;;9.77;8.70;;;;;;;;;;6187537;23;20063;-86
2022/05/30 00:09:27;;;;;;;11.00;9.02;;;;;;;;;;6187785;23;20005;-85
2022/05/30 00:11:58;;;;;;;9.88;8.30;;;;;;;;;;6187164;23;20000;-86
2022/05/30 00:14:25;;;;;;;10.40;8.77;;;;;;;;;;6189290;23;20003;-88
2022/05/30 00:16:52;;;;;;;10.88;8.85;;;;;;;;;;6163577;23;20005;-87
2022/05/30 00:19:28;;;;;;;;;;;;;;;;;;;;;
2022/05/30 00:21:56;;;;;;;11.70;9.43;;;;;;;;;;6190240;23;20083;-85
2022/05/30 00:24:27;;;;;;;12.60;9.57;;;;;;;;;;6190104;23;20429;-86
2022/05/30 00:26:55;;;;;;;10.95;9.68;;;;;;;;;;6162327;23;20012;-84
2022/05/30 00:29:31;;;;;;;;;;;;;;;;;;;;;
2022/05/30 00:31:57;;;;;;;11.73;9.23;;;;;;;;;;6188532;23;20048;-86
2022/05/30 00:34:44;;;;;;;;;;;;;;;;;;;;;
2022/05/30 00:37:20;;;;;;;12.90;10.40;;;;;;;;;;6185484;23;20480;-85
2022/05/30 00:40:09;;;;;;;13.35;10.80;;;;;;;;;;6159441;23;20035;-86
2022/05/30 00:42:37;;;;;;;18.73;11.48;;;;;;;;;;6185521;23;20024;-86
2022/05/30 00:45:22;;;;;;;;;;;;;;;;;;;;;
2022/05/30 00:48:04;;;;;;;10.45;9.23;;;;;;;;;;6185325;23;20095;-86
2022/05/30 00:50:32;;;;;;;11.88;8.80;;;;;;;;;;6185292;23;20008;-85
2022/05/30 00:53:03;;;;;;;11.07;9.02;;;;;;;;;;6159224;23;20004;-86
2022/05/30 00:55:39;;;;;;;10.18;9.05;;;;;;;;;;6158704;23;20088;-85
2022/05/30 00:58:23;;;;;;;8.80;7.90;;;;;;;;;;6185240;23;20318;-84
2022/05/30 01:00:49;;;;;;;10.07;8.97;;;;;;;;;;6158967;23;20001;-84
2022/05/30 01:08:45;;;;;;;9.98;8.95;;;;;;;;;;6185188;23;20013;-86
2022/05/30 01:11:16;;;;;;;9.90;8.35;;;;;;;;;;6158871;23;20462;-85
2022/05/30 01:13:42;;;;;;;10.45;9.40;;;;;;;;;;6183561;23;20008;-83
2022/05/30 01:16:18;;;;;;;12.38;8.82;;;;;;;;;;6185641;23;20031;-85
2022/05/30 01:19:16;;;;;;;9.80;8.80;;;;;;;;;;6184297;23;20008;-85
2022/05/30 01:22:03;;;;;;;10.80;9.20;;;;;;;;;;6153216;23;20087;-85
2022/05/30 01:24:38;;;;;;;13.38;10.25;;;;;;;;;;6158956;23;20001;-85
2022/05/30 01:27:20;;;;;;;13.75;10.20;;;;;;;;;;6183681;23;20092;-85
2022/05/30 01:32:57;;;;;;;13.77;9.93;;;;;;;;;;6169223;23;20005;-84
2022/05/30 01:35:24;;;;;;;15.45;12.52;;;;;;;;;;6184380;23;20063;-85
2022/05/30 01:37:55;;;;;;;14.20;10.55;;;;;;;;;;6183647;23;20001;-84
2022/05/30 01:40:23;;;;;;;12.90;10.27;;;;;;;;;;6183876;23;20060;-85
2022/05/30 01:42:57;;;;;;;12.07;10.27;;;;;;;;;;6183727;23;20008;-84
2022/05/30 01:45:36;;;;;;;11.07;9.93;;;;;;;;;;6185018;23;20052;-85
2022/05/30 01:48:05;;;;;;;12.80;9.73;;;;;;;;;;6161739;23;20013;-85
2022/05/30 01:50:38;;;;;;;12.05;10.70;;;;;;;;;;6183299;23;20005;-84
2022/05/30 01:53:04;;;;;;;11.98;9.52;;;;;;;;;;6183915;23;20016;-84
2022/05/30 01:55:33;;;;;;;14.00;10.38;;;;;;;;;;6184661;23;20012;-84
2022/05/30 01:58:02;;;;;;;11.68;8.85;;;;;;;;;;6172354;23;20017;-83
2022/05/30 02:00:34;;;;;;;11.00;9.20;;;;;;;;;;6183488;23;20009;-85
2022/05/30 02:05:50;;;;;;;10.45;8.82;;;;;;;;;;6184861;23;20005;-85
2022/05/30 02:08:51;;;;;;;11.82;8.55;;;;;;;;;;6158264;23;20055;-84
2022/05/30 02:11:24;;;;;;;9.15;7.72;;;;;;;;;;6183170;23;20093;-85
2022/05/30 02:13:56;;;;;;;11.90;8.68;;;;;;;;;;6185293;23;20005;-85
2022/05/30 02:19:43;;;;;;;;;;;;;;;;;;;;;
2022/05/30 02:22:30;;;;;;;9.73;8.73;;;;;;;;;;6184988;23;20080;-85
2022/05/30 02:28:27;;;;;;;13.27;9.85;;;;;;;;;;6184877;23;20013;-85
2022/05/30 02:31:01;;;;;;;13.63;11.02;;;;;;;;;;6184206;23;20001;-85
2022/05/30 02:38:59;;;;;;;12.23;9.43;;;;;;;;;;6184567;23;20281;-85
2022/05/30 02:41:25;;;;;;;11.85;9.60;;;;;;;;;;6183038;23;19993;-84
2022/05/30 02:43:51;;;;;;;12.18;9.55;;;;;;;;;;6184417;23;20441;-85
2022/05/30 02:46:18;;;;;;;12.40;9.60;;;;;;;;;;6185068;23;20008;-85
2022/05/30 02:48:47;;;;;;;13.57;10.18;;;;;;;;;;6158613;23;20006;-85
2022/05/30 02:51:31;;;;;;;11.65;9.18;;;;;;;;;;6183162;23;20001;-85
2022/05/30 02:54:14;;;;;;;13.88;10.10;;;;;;;;;;6158082;23;20029;-84
2022/05/30 02:59:44;;;;;;;15.52;11.27;;;;;;;;;;6168732;23;20401;-85
2022/05/30 03:02:15;;;;;;;22.17;12.73;;;;;;;;;;6182823;23;20111;-85
2022/05/30 03:05:04;;;;;;;21.73;11.52;;;;;;;;;;6184491;23;20012;-85
2022/05/30 03:07:51;;;;;;;;;;;;;;;;;;;;;
2022/05/30 03:10:27;;;;;;;13.43;10.07;;;;;;;;;;6184575;23;20408;-85
2022/05/30 03:13:10;;;;;;;17.88;11.52;;;;;;;;;;6182888;23;20491;-85
2022/05/30 03:15:49;;;;;;;;;;;;;;;;;;;;;
2022/05/30 03:18:18;;;;;;;13.95;9.85;;;;;;;;;;6184827;23;20076;-84
2022/05/30 03:20:54;;;;;;;;;;;;;;;;;;;;;
2022/05/30 03:26:25;;;;;;;11.63;9.05;;;;;;;;;;6184141;23;20037;-83
2022/05/30 03:28:53;;;;;;;11.43;9.23;;;;;;;;;;6184770;23;20064;-85
2022/05/30 03:31:22;;;;;;;10.95;8.63;;;;;;;;;;6184520;23;20409;-85
2022/05/30 03:33:59;;;;;;;10.30;8.65;;;;;;;;;;6159874;23;20133;-85
2022/05/30 03:36:30;;;;;;;9.38;7.72;;;;;;;;;;6186314;23;20432;-85
2022/05/30 03:38:59;;;;;;;11.63;8.73;;;;;;;;;;6159275;23;20001;-85
2022/05/30 03:41:45;;;;;;;10.98;8.63;;;;;;;;;;6186290;23;20027;-85
2022/05/30 03:44:21;;;;;;;9.75;7.45;;;;;;;;;;6160278;23;20001;-85
2022/05/30 03:46:58;;;;;;;11.10;8.27;;;;;;;;;;6186331;23;20009;-85
2022/05/30 03:49:24;;;;;;;11.73;8.60;;;;;;;;;;6186016;23;19997;-85
2022/05/30 03:51:50;;;;;;;9.07;7.65;;;;;;;;;;6159729;23;20024;-80
2022/05/30 03:54:16;;;;;;;13.40;10.52;;;;;;;;;;6186051;23;20008;-80
2022/05/30 03:56:42;;;;;;;11.90;8.38;;;;;;;;;;6185569;23;20016;-82
2022/05/30 03:59:08;;;;;;;11.40;8.70;;;;;;;;;;6186380;23;20005;-81
2022/05/30 04:01:34;;;;;;;11.00;7.82;;;;;;;;;;6185619;23;20008;-81
2022/05/30 04:04:00;;;;;;;10.15;7.70;;;;;;;;;;6186015;23;20043;-80
2022/05/30 04:06:26;;;;;;;9.23;8.02;;;;;;;;;;6185740;23;20051;-81
2022/05/30 04:08:53;;;;;;;9.20;8.18;;;;;;;;;;6186496;23;20003;-84
2022/05/30 04:11:19;;;;;;;10.38;7.43;;;;;;;;;;6186606;23;20433;-81
2022/05/30 04:13:45;;;;;;;12.65;8.00;;;;;;;;;;6186688;23;20009;-82
2022/05/30 04:16:12;;;;;;;9.95;7.72;;;;;;;;;;6186700;23;20075;-83
2022/05/30 04:18:38;;;;;;;9.13;7.88;;;;;;;;;;6186373;23;20111;-83
2022/05/30 04:21:24;;;;;;;10.98;8.02;;;;;;;;;;6153872;23;20332;-82
2022/05/30 04:23:50;;;;;;;11.98;8.57;;;;;;;;;;6129259;23;20350;-81
2022/05/30 04:26:17;;;;;;;12.55;9.30;;;;;;;;;;6154783;23;20002;-84
2022/05/30 04:28:43;;;;;;;11.75;8.52;;;;;;;;;;6154588;23;20009;-80
2022/05/30 04:31:10;;;;;;;12.20;8.55;;;;;;;;;;6153790;23;20033;-80
2022/05/30 04:33:37;;;;;;;8.98;8.05;;;;;;;;;;6127975;23;20477;-80
2022/05/30 04:36:04;;;;;;;10.20;8.32;;;;;;;;;;6153425;23;20036;-81
2022/05/30 04:38:30;;;;;;;8.32;7.47;;;;;;;;;;6153100;23;20001;-80
2022/05/30 04:40:56;;;;;;;10.20;7.20;;;;;;;;;;6153412;23;20093;-80
2022/05/30 04:43:23;;;;;;;13.32;8.45;;;;;;;;;;6153262;23;20426;-81
2022/05/30 04:46:02;;;;;;;10.57;8.07;;;;;;;;;;6153173;23;20017;-81
2022/05/30 04:48:28;;;;;;;11.25;8.25;;;;;;;;;;6152826;23;20025;-81
2022/05/30 04:50:54;;;;;;;13.20;8.25;;;;;;;;;;6152797;23;20006;-81
2022/05/30 04:53:23;;;;;;;9.27;7.57;;;;;;;;;;6182581;23;20009;-82
2022/05/30 04:55:49;;;;;;;11.85;9.15;;;;;;;;;;6185827;23;20504;-81
2022/05/30 04:58:15;;;;;;;11.75;8.27;;;;;;;;;;6185875;23;20009;-83
2022/05/30 05:00:41;;;;;;;13.45;9.25;;;;;;;;;;6186739;23;20398;-83
2022/05/30 05:03:07;;;;;;;13.75;10.55;;;;;;;;;;6185975;23;19998;-81
2022/05/30 05:05:34;;;;;;;16.52;10.65;;;;;;;;;;6185380;23;20429;-83
2022/05/30 05:08:06;;;;;;;15.15;10.23;;;;;;;;;;6185921;23;20084;-83
2022/05/30 05:10:41;;;;;;;13.23;10.32;;;;;;;;;;6185834;23;20007;-83
2022/05/30 05:13:08;;;;;;;14.27;10.40;;;;;;;;;;6185891;23;20001;-82
2022/05/30 05:15:34;;;;;;;15.40;10.52;;;;;;;;;;6186141;23;20008;-80
2022/05/30 05:18:44;;;;;;;11.32;9.13;;;;;;;;;;6185167;23;20001;-88
2022/05/30 05:21:22;;;;;;;10.80;8.23;;;;;;;;;;6186944;23;20027;-87
2022/05/30 05:30:42;;;;;;;11.90;9.77;;;;;;;;;;6024710;23;20375;-83
2022/05/30 05:33:27;;;;;;;13.60;8.77;;;;;;;;;;6093060;23;20146;-84
2022/05/30 05:35:53;;;;;;;14.90;11.18;;;;;;;;;;6153641;23;20005;-86
2022/05/30 05:38:19;;;;;;;16.02;13.05;;;;;;;;;;6184290;23;20004;-85
2022/05/30 05:41:15;;;;;;;30.27;23.90;;;;;;;;;;6183502;23;20074;-85
2022/05/30 05:46:50;;;;;;;41.35;33.38;;;;;;;;;;6112887;23;20017;-86
2022/05/30 05:49:17;;;;;;;21.70;19.05;;;;;;;;;;6176189;23;20009;-82
2022/05/30 05:51:45;;;;;;;17.08;14.45;;;;;;;;;;6184852;23;20298;-84
2022/05/30 05:54:23;;;;;;;14.38;12.13;;;;;;;;;;6185710;23;20008;-86
2022/05/30 05:56:53;;;;;;;14.02;11.15;;;;;;;;;;6160598;23;20028;-85
2022/05/30 05:59:38;;;;;;;15.00;11.05;;;;;;;;;;6183720;23;20033;-84
2022/05/30 06:02:08;;;;;;;13.10;10.13;;;;;;;;;;6185365;23;20121;-85
2022/05/30 06:04:36;;;;;;;14.02;9.63;;;;;;;;;;6184793;23;20009;-82
2022/05/30 06:07:12;;;;;;;18.20;16.27;;;;;;;;;;6159778;23;20009;-81
2022/05/30 06:09:52;;;;;;;;;;;;;;;;;;;;;
2022/05/30 06:15:22;;;;;;;14.27;11.98;;;;;;;;;;6185436;23;20008;-86
2022/05/30 06:17:48;;;;;;;13.23;10.45;;;;;;;;;;6185124;23;20001;-84
2022/05/30 06:20:22;;;;;;;17.23;12.43;;;;;;;;;;6182090;23;20052;-89
2022/05/30 06:26:14;;;;;;;15.60;11.70;;;;;;;;;;6150968;23;20112;-89
2022/05/30 06:31:56;;;;;;;;;;;;;;;;;;;;;
2022/05/30 06:34:26;;;;;;;16.58;12.95;;;;;;;;;;6184489;23;20501;-85
2022/05/30 06:37:04;;;;;;;;;;;;;;;;;;;;;
2022/05/30 06:40:13;;;;;;;16.83;14.15;;;;;;;;;;6182751;23;20088;-86
2022/05/30 06:42:40;;;;;;;30.67;22.58;;;;;;;;;;6181995;23;20333;-83
2022/05/30 06:45:07;;;;;;;19.10;13.80;;;;;;;;;;6185056;23;20005;-83
2022/05/30 06:47:33;;;;;;;14.35;12.50;;;;;;;;;;6183630;23;20055;-83
2022/05/30 06:50:09;;;;;;;15.13;12.02;;;;;;;;;;6183465;23;20005;-85
2022/05/30 06:52:38;;;;;;;13.70;11.23;;;;;;;;;;6183658;23;20424;-84
2022/05/30 06:55:15;;;;;;;17.15;13.38;;;;;;;;;;6184490;23;20325;-84
2022/05/30 07:01:28;;;;;;;15.82;12.57;;;;;;;;;;6148801;23;20090;-84
2022/05/30 07:03:54;;;;;;;15.30;11.73;;;;;;;;;;6184079;23;20013;-83
2022/05/30 07:06:25;;;;;;;14.85;11.70;;;;;;;;;;6183532;23;20005;-82
2022/05/30 07:12:02;;;;;;;18.10;16.10;;;;;;;;;;6122957;23;20006;-86
2022/05/30 07:14:29;;;;;;;15.10;13.00;;;;;;;;;;6170701;23;20071;-83
2022/05/30 07:17:05;;;;;;;;;;;;;;;;;;;;;
2022/05/30 07:19:34;;;;;;;15.38;12.93;;;;;;;;;;6186723;23;20076;-82
2022/05/30 07:22:00;;;;;;;13.88;12.38;;;;;;;;;;6184982;23;20060;-83
2022/05/30 07:24:26;;;;;;;26.15;20.23;;;;;;;;;;6185366;23;20425;-83
2022/05/30 07:26:52;;;;;;;21.00;18.65;;;;;;;;;;6186418;23;20004;-84
2022/05/30 07:29:28;;;;;;;29.13;25.08;;;;;;;;;;6186332;23;20376;-83
2022/05/30 07:32:01;;;;;;;16.38;14.15;;;;;;;;;;6184148;23;20005;-80
2022/05/30 07:34:27;;;;;;;21.58;18.50;;;;;;;;;;6185555;23;20055;-80
2022/05/30 07:37:01;;;;;;;18.90;14.13;;;;;;;;;;6184932;23;20039;-81
2022/05/30 07:39:38;;;;;;;14.85;13.35;;;;;;;;;;6186587;23;20001;-81
2022/05/30 07:42:10;;;;;;;17.27;12.48;;;;;;;;;;6186720;23;20001;-83
2022/05/30 07:44:43;;;;;;;13.85;11.77;;;;;;;;;;6185785;23;20001;-81
2022/05/30 07:47:21;;;;;;;15.70;13.95;;;;;;;;;;6185519;23;20005;-81
2022/05/30 07:50:02;;;;;;;13.57;11.55;;;;;;;;;;6185104;23;20004;-83
2022/05/30 07:52:29;;;;;;;22.42;20.13;;;;;;;;;;6185998;23;20428;-81
2022/05/30 07:54:55;;;;;;;16.13;13.05;;;;;;;;;;6183899;23;20424;-80
2022/05/30 07:57:50;;;;;;;55.10;49.20;;;;;;;;;;6185151;23;20036;-82
2022/05/30 08:00:07;;;;;;;112.90;100.65;;;;;;;;;;6185538;23;20009;-81
2022/05/30 08:02:33;;;;;;;67.43;56.83;;;;;;;;;;6184849;23;20072;-78
2022/05/30 08:05:00;;;;;;;41.55;35.60;;;;;;;;;;6185268;23;20048;-80
2022/05/30 08:07:26;;;;;;;32.70;26.50;;;;;;;;;;6184240;23;20005;-84
2022/05/30 08:09:52;;;;;;;23.77;21.17;;;;;;;;;;6185243;23;20001;-82
2022/05/30 08:12:18;;;;;;;20.95;17.92;;;;;;;;;;6185214;23;20158;-81
2022/05/30 08:14:44;;;;;;;19.48;16.38;;;;;;;;;;6183912;23;20004;-80
2022/05/30 08:17:10;;;;;;;22.05;16.20;;;;;;;;;;6184970;23;20035;-82
2022/05/30 08:19:40;;;;;;;15.43;12.90;;;;;;;;;;6185875;23;20076;-71
2022/05/30 08:22:07;;;;;;;14.52;13.02;;;;;;;;;;6185420;23;20088;-81
2022/05/30 08:24:37;;;;;;;15.75;13.00;;;;;;;;;;6185245;23;20059;-82
2022/05/30 08:27:03;;;;;;;16.80;12.55;;;;;;;;;;6183466;23;20005;-83
2022/05/30 08:29:30;;;;;;;14.30;10.90;;;;;;;;;;6185375;23;20081;-81
2022/05/30 08:31:56;;;;;;;13.65;12.20;;;;;;;;;;6183123;23;20005;-82
2022/05/30 08:34:26;;;;;;;16.00;12.55;;;;;;;;;;6185081;23;20000;-83
2022/05/30 08:36:52;;;;;;;25.42;13.13;;;;;;;;;;6184400;23;20024;-73
2022/05/30 08:42:04;;;;;;;16.27;14.57;;;;;;;;;;6185022;23;20072;-80
2022/05/30 08:44:30;;;;;;;16.38;11.90;;;;;;;;;;6183004;23;20328;-81
2022/05/30 08:47:01;;;;;;;12.90;11.45;;;;;;;;;;6184665;23;19997;-81
2022/05/30 08:49:31;;;;;;;11.75;9.98;;;;;;;;;;6184910;23;20007;-82
2022/05/30 08:52:18;;;;;;;11.77;9.82;;;;;;;;;;6157968;23;20455;-82
2022/05/30 08:55:02;;;;;;;11.43;9.73;;;;;;;;;;6183012;23;19997;-81
2022/05/30 08:57:47;;;;;;;11.27;9.63;;;;;;;;;;6184633;23;20024;-84
2022/05/30 09:00:20;;;;;;;11.13;9.98;;;;;;;;;;6184545;23;20441;-84
2022/05/30 09:03:01;;;;;;;10.05;9.05;;;;;;;;;;6184155;23;20001;-83
2022/05/30 09:05:33;;;;;;;11.15;10.15;;;;;;;;;;6185354;23;20004;-83
2022/05/30 09:08:05;;;;;;;10.95;9.90;;;;;;;;;;6185347;23;20005;-82
2022/05/30 09:10:35;;;;;;;11.88;10.75;;;;;;;;;;6185140;23;20063;-84
2022/05/30 09:13:17;;;;;;;;;;;;;;;;;;;;;
2022/05/30 09:15:46;;;;;;;10.82;9.73;;;;;;;;;;6187673;23;20089;-82
2022/05/30 09:18:34;;;;;;;11.80;10.23;;;;;;;;;;6184388;23;20005;-82
2022/05/30 09:21:00;;;;;;;12.73;10.20;;;;;;;;;;6145165;23;20005;-81
2022/05/30 09:23:29;;;;;;;16.42;11.32;;;;;;;;;;6183713;23;20001;-82
2022/05/30 09:26:01;;;;;;;14.80;12.30;;;;;;;;;;6183462;23;20016;-84
2022/05/30 09:28:33;;;;;;;26.65;21.23;;;;;;;;;;6185028;23;20012;-83
2022/05/30 09:31:02;;;;;;;22.48;17.55;;;;;;;;;;6184525;23;20005;-83
2022/05/30 09:33:35;;;;;;;20.77;15.70;;;;;;;;;;6183975;23;20080;-81
2022/05/30 09:36:35;;;;;;;;;;;;;;;;;;;;;
2022/05/30 09:39:14;;;;;;;20.38;15.48;;;;;;;;;;6148749;23;20072;-83
2022/05/30 09:41:41;;;;;;;18.73;13.82;;;;;;;;;;6185042;23;20009;-81
2022/05/30 09:44:12;;;;;;;14.27;11.88;;;;;;;;;;6185073;23;20019;-81
2022/05/30 09:46:43;;;;;;;17.10;14.30;;;;;;;;;;6183414;23;20076;-80
2022/05/30 09:49:17;;;;;;;14.27;12.88;;;;;;;;;;6183894;23;20005;-80
2022/05/30 09:51:44;;;;;;;13.77;11.80;;;;;;;;;;6184564;23;20004;-79
2022/05/30 09:54:12;;;;;;;12.77;11.48;;;;;;;;;;6184230;23;20001;-80
2022/05/30 09:56:42;;;;;;;11.25;10.13;;;;;;;;;;6184512;23;20008;-84
2022/05/30 09:59:19;;;;;;;16.52;14.80;;;;;;;;;;6183399;23;20009;-82
2022/05/30 10:01:50;;;;;;;14.95;11.95;;;;;;;;;;6183870;23;19998;-80
2022/05/30 10:04:21;;;;;;;12.27;10.73;;;;;;;;;;6184818;23;20001;-83
2022/05/30 10:07:07;;;;;;;13.95;12.52;;;;;;;;;;6184300;23;20013;-79
2022/05/30 10:09:34;;;;;;;19.60;17.63;;;;;;;;;;6184098;23;20001;-80
2022/05/30 10:12:01;;;;;;;35.70;31.75;;;;;;;;;;6184476;23;20001;-80
2022/05/30 10:14:34;;;;;;;31.45;28.20;;;;;;;;;;6184508;23;20001;-82
2022/05/30 10:17:11;;;;;;;28.85;25.60;;;;;;;;;;6184221;23;20060;-82
2022/05/30 10:19:39;;;;;;;29.58;26.77;;;;;;;;;;6183929;23;20416;-80
2022/05/30 10:28:27;;;;;;;11.70;10.45;;;;;;;;;;6183706;23;20123;-81
2022/05/30 10:31:12;;;;;;;13.35;11.95;;;;;;;;;;6183664;23;20005;-82
2022/05/30 10:34:05;;;;;;;14.25;12.35;;;;;;;;;;6183237;23;20012;-82
2022/05/30 10:36:34;;;;;;;30.15;24.25;;;;;;;;;;6183539;23;20007;-80
2022/05/30 10:39:19;;;;;;;23.95;21.63;;;;;;;;;;6185875;23;19997;-81
2022/05/30 10:41:51;;;;;;;21.60;19.52;;;;;;;;;;6183655;23;20008;-81
2022/05/30 10:44:32;;;;;;;33.70;28.55;;;;;;;;;;6183404;23;20005;-82
2022/05/30 10:47:18;;;;;;;28.33;25.67;;;;;;;;;;6184051;23;20417;-83
2022/05/30 10:49:50;;;;;;;17.95;15.80;;;;;;;;;;6183575;23;20422;-81
2022/05/30 10:52:22;;;;;;;19.98;18.02;;;;;;;;;;6183497;23;19997;-82
2022/05/30 10:54:55;;;;;;;15.52;12.80;;;;;;;;;;6181306;23;20336;-81
2022/05/30 10:57:24;;;;;;;7.68;6.88;;;;;;;;;;6182731;23;20340;-80
2022/05/30 10:59:53;;;;;;;9.77;8.77;;;;;;;;;;6183400;23;20004;-81
2022/05/30 11:02:27;;;;;;;8.13;6.30;;;;;;;;;;6180752;23;20004;-79
2022/05/30 11:05:11;;;;;;;7.47;5.18;;;;;;;;;;6182700;23;20002;-81
2022/05/30 11:07:53;;;;;;;7.28;5.00;;;;;;;;;;6180592;23;20005;-79
2022/05/30 11:10:28;;;;;;;6.40;5.63;;;;;;;;;;6184502;23;20005;-72
2022/05/30 11:12:59;;;;;;;8.30;4.20;;;;;;;;;;6182609;23;20001;-81
2022/05/30 11:15:45;;;;;;;6.25;4.75;;;;;;;;;;6183238;23;20329;-80
2022/05/30 11:18:29;;;;;;;9.57;8.05;;;;;;;;;;6157206;23;20317;-83
2022/05/30 11:21:14;;;;;;;7.40;6.72;;;;;;;;;;6181754;23;20080;-81
2022/05/30 11:23:41;;;;;;;15.77;12.13;;;;;;;;;;6182950;23;20333;-83
2022/05/30 11:26:13;;;;;;;17.30;11.70;;;;;;;;;;6182726;23;20009;-80
2022/05/30 11:28:42;;;;;;;8.75;5.00;;;;;;;;;;6182383;23;20080;-81
2022/05/30 11:31:17;;;;;;;18.83;13.77;;;;;;;;;;6182464;23;20150;-79
2022/05/30 11:33:49;;;;;;;9.02;7.28;;;;;;;;;;6182174;23;20317;-77
2022/05/30 11:36:34;;;;;;;6.60;4.20;;;;;;;;;;6182203;23;20001;-78
2022/05/30 11:39:19;;;;;;;6.00;4.22;;;;;;;;;;6182603;23;20024;-80
2022/05/30 11:42:03;;;;;;;6.22;3.40;;;;;;;;;;6184221;23;20005;-80
2022/05/30 11:44:48;;;;;;;5.80;3.30;;;;;;;;;;6182643;23;20011;-80
2022/05/30 11:47:21;;;;;;;4.82;3.15;;;;;;;;;;6183068;23;20036;-78
2022/05/30 11:49:58;;;;;;;4.65;3.05;;;;;;;;;;6182976;23;20056;-78
2022/05/30 11:52:35;;;;;;;7.13;3.30;;;;;;;;;;6182342;23;20068;-77
2022/05/30 11:55:01;;;;;;;5.18;3.20;;;;;;;;;;6184980;23;20004;-80
2022/05/30 11:57:41;;;;;;;45.22;40.83;;;;;;;;;;6182879;23;20045;-80
2022/05/30 12:00:10;;;;;;;12.52;11.18;;;;;;;;;;6186195;23;20433;-80
2022/05/30 12:02:36;;;;;;;8.32;7.50;;;;;;;;;;6184879;23;20001;-80
2022/05/30 12:05:21;;;;;;;10.27;9.27;;;;;;;;;;6187211;23;20373;-80
2022/05/30 12:07:48;;;;;;;13.10;10.95;;;;;;;;;;6184251;23;20554;-81
2022/05/30 12:10:32;;;;;;;11.20;9.75;;;;;;;;;;6186240;23;20001;-80
2022/05/30 12:13:01;;;;;;;8.93;4.35;;;;;;;;;;6184951;23;20064;-79
2022/05/30 12:15:28;;;;;;;7.30;4.00;;;;;;;;;;6184933;23;20004;-79
2022/05/30 12:24:26;;;;;;;5.45;3.17;;;;;;;;;;6147914;23;20047;-84
2022/05/30 12:26:56;;;;;;;6.88;2.60;;;;;;;;;;6172817;23;20088;-78
2022/05/30 12:29:42;;;;;;;6.28;3.00;;;;;;;;;;6185314;23;20035;-80
2022/05/30 12:32:16;;;;;;;4.35;2.38;;;;;;;;;;6186698;23;20001;-78
2022/05/30 12:35:00;;;;;;;4.30;3.10;;;;;;;;;;6184251;23;20063;-79
2022/05/30 12:37:43;;;;;;;5.95;3.00;;;;;;;;;;6184277;23;20533;-81
2022/05/30 12:40:28;;;;;;;4.07;3.42;;;;;;;;;;6185318;23;20008;-81
2022/05/30 12:42:57;;;;;;;8.05;2.80;;;;;;;;;;6183767;23;20431;-81
2022/05/30 12:45:35;;;;;;;6.15;3.35;;;;;;;;;;6184373;23;20012;-81
2022/05/30 12:48:20;;;;;;;7.28;3.58;;;;;;;;;;6184880;23;20005;-80
2022/05/30 12:50:52;;;;;;;5.63;2.22;;;;;;;;;;6182828;23;20000;-82
2022/05/30 12:53:23;;;;;;;3.47;2.13;;;;;;;;;;6184874;23;20306;-83
2022/05/30 12:55:50;;;;;;;7.45;2.60;;;;;;;;;;6183455;23;20017;-82
2022/05/30 12:58:34;;;;;;;6.65;3.10;;;;;;;;;;6183258;23;20021;-79
2022/05/30 13:01:07;;;;;;;3.08;2.08;;;;;;;;;;6184007;23;20460;-80
2022/05/30 13:03:35;;;;;;;7.22;3.83;;;;;;;;;;6184403;23;19997;-80
2022/05/30 13:06:11;;;;;;;22.27;17.35;;;;;;;;;;6183926;23;20005;-81
2022/05/30 13:08:55;;;;;;;7.95;6.50;;;;;;;;;;6183624;23;20437;-78
2022/05/30 13:11:33;;;;;;;9.15;6.60;;;;;;;;;;6183211;23;20382;-80
2022/05/30 13:14:18;;;;;;;5.30;2.38;;;;;;;;;;6183628;23;20005;-81
2022/05/30 13:16:45;;;;;;;4.15;2.05;;;;;;;;;;6184342;23;20029;-78
2022/05/30 13:19:12;;;;;;;8.07;4.93;;;;;;;;;;6184639;23;20001;-80
2022/05/30 13:21:41;;;;;;;5.65;3.50;;;;;;;;;;6185195;23;20001;-82
2022/05/30 13:24:27;;;;;;;7.35;3.08;;;;;;;;;;6185084;23;20080;-81
2022/05/30 13:26:54;;;;;;;3.53;1.70;;;;;;;;;;6184272;23;20437;-77
2022/05/30 13:29:20;;;;;;;4.43;1.77;;;;;;;;;;6184787;23;19993;-78
2022/05/30 13:31:50;;;;;;;4.25;1.90;;;;;;;;;;6185403;23;20005;-79
2022/05/30 13:34:21;;;;;;;5.82;1.90;;;;;;;;;;6184797;23;19997;-81
2022/05/30 13:36:49;;;;;;;3.40;1.30;;;;;;;;;;6185221;23;20076;-81
2022/05/30 13:39:15;;;;;;;4.03;1.23;;;;;;;;;;6185593;23;20004;-83
2022/05/30 13:41:41;;;;;;;6.63;4.68;;;;;;;;;;6185537;23;20028;-83
2022/05/30 13:44:26;;;;;;;6.88;2.15;;;;;;;;;;6185239;23;20020;-81
2022/05/30 13:47:03;;;;;;;4.05;1.20;;;;;;;;;;6185384;23;20005;-81
2022/05/30 13:49:35;;;;;;;2.95;1.30;;;;;;;;;;6185574;23;20056;-80
2022/05/30 13:52:01;;;;;;;3.95;1.75;;;;;;;;;;6183769;23;19997;-83
2022/05/30 13:54:28;;;;;;;4.82;1.88;;;;;;;;;;6184876;23;20009;-83
2022/05/30 13:56:55;;;;;;;4.07;1.80;;;;;;;;;;6183549;23;20020;-82
2022/05/30 13:59:27;;;;;;;3.80;1.30;;;;;;;;;;6158230;23;20001;-84
2022/05/30 14:02:16;;;;;;;4.72;1.40;;;;;;;;;;6184495;23;20053;-84
2022/05/30 14:04:46;;;;;;;4.28;1.60;;;;;;;;;;6183965;23;20016;-82
2022/05/30 14:07:39;;;;;;;3.90;1.25;;;;;;;;;;6158612;23;20302;-85
2022/05/30 14:10:09;;;;;;;6.50;1.50;;;;;;;;;;6184760;23;20068;-83
2022/05/30 14:12:36;;;;;;;6.43;2.67;;;;;;;;;;6158431;23;20365;-85
2022/05/30 14:15:07;;;;;;;4.38;1.52;;;;;;;;;;6184062;23;20005;-84
2022/05/30 14:17:34;;;;;;;6.72;1.90;;;;;;;;;;6184196;23;20008;-84
2022/05/30 14:20:12;;;;;;;4.63;1.85;;;;;;;;;;6184575;23;20004;-85
2022/05/30 14:22:51;;;;;;;3.90;1.73;;;;;;;;;;6183465;23;20455;-84
2022/05/30 14:25:36;;;;;;;5.95;2.20;;;;;;;;;;6158797;23;20005;-84
2022/05/30 14:28:08;;;;;;;5.20;3.22;;;;;;;;;;6184108;23;20005;-83
2022/05/30 14:31:13;;;;;;;;;;;;;;;;;;;;;
2022/05/30 14:37:09;;;;;;;;;;;;;;;;;;;;;
2022/05/30 14:39:45;;;;;;;5.90;2.08;;;;;;;;;;6093927;23;20081;-86
2022/05/30 14:42:50;;;;;;;;;;;;;;;;;;;;;
2022/05/30 14:45:26;;;;;;;2.88;1.60;;;;;;;;;;6181785;23;20091;-85
2022/05/30 14:47:58;;;;;;;12.05;9.40;;;;;;;;;;6185168;23;20032;-84
2022/05/30 14:50:35;;;;;;;10.07;7.43;;;;;;;;;;6184785;23;20005;-85
2022/05/30 14:53:05;;;;;;;5.25;2.58;;;;;;;;;;6157760;23;20397;-85
2022/05/30 14:55:53;;;;;;;6.00;3.42;;;;;;;;;;6186992;23;20425;-85
2022/05/30 14:58:26;;;;;;;6.47;2.25;;;;;;;;;;6185281;23;20056;-85
2022/05/30 15:00:52;;;;;;;5.57;1.83;;;;;;;;;;6184885;23;20068;-85
2022/05/30 15:06:05;;;;;;;5.00;2.03;;;;;;;;;;6184575;23;20325;-86
2022/05/30 15:08:32;;;;;;;10.95;2.78;;;;;;;;;;6183632;23;20055;-82
2022/05/30 15:11:14;;;;;;;4.80;1.83;;;;;;;;;;6184217;23;20064;-83
2022/05/30 15:13:42;;;;;;;7.40;2.45;;;;;;;;;;6158240;23;20012;-84
2022/05/30 15:16:08;;;;;;;5.53;1.73;;;;;;;;;;6184365;23;20001;-84
2022/05/30 15:18:34;;;;;;;5.35;1.98;;;;;;;;;;6184203;23;20005;-83
2022/05/30 15:21:12;;;;;;;7.25;2.38;;;;;;;;;;6184376;23;20337;-84
2022/05/30 15:24:09;;;;;;;6.18;1.98;;;;;;;;;;6184192;23;20008;-84
2022/05/30 15:26:34;;;;;;;6.47;2.35;;;;;;;;;;6183473;23;20009;-84
2022/05/30 15:29:02;;;;;;;5.78;3.17;;;;;;;;;;6185948;23;19997;-84
2022/05/30 15:31:30;;;;;;;3.60;1.65;;;;;;;;;;6159936;23;20088;-83
2022/05/30 15:33:56;;;;;;;7.53;2.67;;;;;;;;;;6185866;23;20033;-84
2022/05/30 15:36:23;;;;;;;4.78;2.33;;;;;;;;;;6159731;23;20005;-81
2022/05/30 15:38:56;;;;;;;4.43;1.80;;;;;;;;;;6185791;23;20032;-85
2022/05/30 15:41:23;;;;;;;4.20;2.08;;;;;;;;;;6159682;23;20016;-81
2022/05/30 15:43:49;;;;;;;4.85;2.35;;;;;;;;;;6185747;23;20081;-85
2022/05/30 15:46:20;;;;;;;10.70;6.57;;;;;;;;;;6159614;23;20329;-83
2022/05/30 15:48:46;;;;;;;6.40;2.70;;;;;;;;;;6185837;23;20005;-70
2022/05/30 15:51:16;;;;;;;9.35;4.38;;;;;;;;;;6185844;23;20456;-83
2022/05/30 15:59:31;;;;;;;5.18;2.42;;;;;;;;;;6185875;23;20047;-82
2022/05/30 16:01:57;;;;;;;6.55;2.33;;;;;;;;;;6185738;23;20009;-84
2022/05/30 16:04:23;;;;;;;4.43;1.83;;;;;;;;;;6185423;23;20460;-79
2022/05/30 16:06:52;;;;;;;3.78;1.70;;;;;;;;;;6185439;23;20009;-82
2022/05/30 16:09:19;;;;;;;5.43;1.80;;;;;;;;;;6185951;23;20001;-80
2022/05/30 16:11:49;;;;;;;6.28;1.80;;;;;;;;;;6185882;23;19997;-83
2022/05/30 16:14:16;;;;;;;2.88;1.63;;;;;;;;;;6159623;23;20005;-83
2022/05/30 16:16:43;;;;;;;5.28;1.55;;;;;;;;;;6185970;23;20001;-82
2022/05/30 16:19:09;;;;;;;5.70;1.25;;;;;;;;;;6185552;23;19997;-81
2022/05/30 16:21:35;;;;;;;4.00;1.30;;;;;;;;;;6185288;23;19997;-84
2022/05/30 16:24:03;;;;;;;4.03;1.33;;;;;;;;;;6185247;23;20012;-82
2022/05/30 16:26:49;;;;;;;5.43;1.95;;;;;;;;;;6185900;23;20001;-83
2022/05/30 16:29:25;;;;;;;3.80;1.23;;;;;;;;;;6185480;23;20001;-83
2022/05/30 16:31:51;;;;;;;5.05;1.60;;;;;;;;;;6186040;23;20001;-83
2022/05/30 16:34:28;;;;;;;6.05;2.20;;;;;;;;;;6185856;23;19993;-83
2022/05/30 16:37:24;;;;;;;;;;;;;;;;;;;;;
2022/05/30 16:39:53;;;;;;;3.20;1.50;;;;;;;;;;6184795;23;20068;-81
2022/05/30 16:42:19;;;;;;;5.53;2.03;;;;;;;;;;6159280;23;20496;-82
2022/05/30 16:44:47;;;;;;;4.05;1.30;;;;;;;;;;6184681;23;20003;-82
2022/05/30 16:47:39;;;;;;;4.90;1.52;;;;;;;;;;6184517;23;19997;-84